aviador You're here:

KBWW Decoded Metar

in
Report Time2017-05-26 12:55:00
UTC Time2017-05-26 13:10:14
Flight Rules vfr VFR
Wind310° at 20 Gusting to 25 kt
W.Decomp.*RWY 31: 20.0 kt HW 0 kt LCW
W.Rank310° ranks 3
Current wind is above 310° avg. (15.5)
Visibility9999 m
Phenomena:N/A
Clouds:N/A
Expected CloudBase > 2,000 ft AGL from Temp-Dew spread
CeilingNone
Temp08°C
Dew Point03°C (71% RH)
AAT-0.7°C
QNH1007 hPa
Raw Report
METAR KBWW 261255Z AUTO 31020G25KT 10SM CLR 08/03 A2973 RMK AO2=

Extra information for KBWW:More info

Social comments